sensor_id;sensor_type;location;lat;lon;timestamp;P1;durP1;ratioP1;P2;durP2;ratioP2
64651;SDS011;51062;45.120;37.660;2022-08-16T00:00:00;17.67;;;7.40;;
64651;SDS011;51062;45.120;37.660;2022-08-16T00:02:26;19.38;;;7.75;;
64651;SDS011;51062;45.120;37.660;2022-08-16T00:04:52;20.90;;;7.65;;
64651;SDS011;51062;45.120;37.660;2022-08-16T00:07:18;16.40;;;7.30;;
64651;SDS011;51062;45.120;37.660;2022-08-16T00:09:44;14.57;;;7.47;;
64651;SDS011;51062;45.120;37.660;2022-08-16T00:12:11;15.55;;;6.90;;
64651;SDS011;51062;45.120;37.660;2022-08-16T00:14:37;19.40;;;7.32;;
64651;SDS011;51062;45.120;37.660;2022-08-16T00:17:03;13.30;;;7.13;;
64651;SDS011;51062;45.120;37.660;2022-08-16T00:19:30;20.33;;;7.45;;
64651;SDS011;51062;45.120;37.660;2022-08-16T00:21:58;20.85;;;8.02;;
64651;SDS011;51062;45.120;37.660;2022-08-16T00:24:25;20.48;;;7.15;;
64651;SDS011;51062;45.120;37.660;2022-08-16T00:26:53;21.23;;;7.95;;
64651;SDS011;51062;45.120;37.660;2022-08-16T00:29:19;18.50;;;7.63;;
64651;SDS011;51062;45.120;37.660;2022-08-16T00:31:46;17.98;;;10.55;;
64651;SDS011;51062;45.120;37.660;2022-08-16T00:34:14;13.93;;;8.23;;
64651;SDS011;51062;45.120;37.660;2022-08-16T00:36:41;18.60;;;8.60;;
64651;SDS011;51062;45.120;37.660;2022-08-16T00:39:13;19.98;;;6.95;;
64651;SDS011;51062;45.120;37.660;2022-08-16T00:41:41;15.65;;;7.47;;
64651;SDS011;51062;45.120;37.660;2022-08-16T00:44:09;24.23;;;7.85;;
64651;SDS011;51062;45.120;37.660;2022-08-16T00:46:38;21.00;;;7.80;;
64651;SDS011;51062;45.120;37.660;2022-08-16T00:49:09;21.38;;;7.70;;
64651;SDS011;51062;45.120;37.660;2022-08-16T00:51:37;13.90;;;7.50;;
64651;SDS011;51062;45.120;37.660;2022-08-16T00:54:03;25.77;;;8.18;;
64651;SDS011;51062;45.120;37.660;2022-08-16T00:56:32;21.35;;;7.90;;
64651;SDS011;51062;45.120;37.660;2022-08-16T00:59:02;21.23;;;7.97;;
64651;SDS011;51062;45.120;37.660;2022-08-16T01:01:30;14.73;;;7.95;;
64651;SDS011;51062;45.120;37.660;2022-08-16T01:03:57;15.50;;;8.00;;
64651;SDS011;51062;45.120;37.660;2022-08-16T01:06:24;14.32;;;8.07;;
64651;SDS011;51062;45.120;37.660;2022-08-16T01:08:52;18.63;;;8.27;;
64651;SDS011;51062;45.120;37.660;2022-08-16T01:11:24;16.95;;;8.93;;
64651;SDS011;51062;45.120;37.660;2022-08-16T01:13:52;14.95;;;7.95;;
64651;SDS011;51062;45.120;37.660;2022-08-16T01:16:22;19.90;;;8.30;;
64651;SDS011;51062;45.120;37.660;2022-08-16T01:19:03;19.30;;;8.27;;
64651;SDS011;51062;45.120;37.660;2022-08-16T01:21:59;22.27;;;8.43;;
64651;SDS011;51062;45.120;37.660;2022-08-16T01:24:33;18.17;;;8.18;;
64651;SDS011;51062;45.120;37.660;2022-08-16T01:30:10;21.55;;;8.35;;
64651;SDS011;51062;45.120;37.660;2022-08-16T01:32:40;13.77;;;7.40;;
64651;SDS011;51062;45.120;37.660;2022-08-16T01:35:08;18.55;;;8.05;;
64651;SDS011;51062;45.120;37.660;2022-08-16T01:37:41;14.90;;;7.65;;
64651;SDS011;51062;45.120;37.660;2022-08-16T01:40:11;15.95;;;7.28;;
64651;SDS011;51062;45.120;37.660;2022-08-16T01:42:38;16.30;;;8.20;;
64651;SDS011;51062;45.120;37.660;2022-08-16T01:45:05;20.95;;;8.20;;
64651;SDS011;51062;45.120;37.660;2022-08-16T01:47:32;14.52;;;8.40;;
64651;SDS011;51062;45.120;37.660;2022-08-16T01:50:01;24.52;;;8.02;;
64651;SDS011;51062;45.120;37.660;2022-08-16T01:52:29;17.13;;;7.25;;
64651;SDS011;51062;45.120;37.660;2022-08-16T01:55:02;20.88;;;7.55;;
64651;SDS011;51062;45.120;37.660;2022-08-16T01:57:29;14.38;;;7.45;;
64651;SDS011;51062;45.120;37.660;2022-08-16T01:59:56;20.85;;;7.63;;
64651;SDS011;51062;45.120;37.660;2022-08-16T02:02:24;14.23;;;7.05;;
64651;SDS011;51062;45.120;37.660;2022-08-16T02:04:51;13.68;;;7.03;;
64651;SDS011;51062;45.120;37.660;2022-08-16T02:07:18;18.17;;;7.03;;
64651;SDS011;51062;45.120;37.660;2022-08-16T02:09:46;14.25;;;8.20;;
64651;SDS011;51062;45.120;37.660;2022-08-16T02:12:13;15.23;;;7.60;;
64651;SDS011;51062;45.120;37.660;2022-08-16T02:14:41;12.95;;;6.78;;
64651;SDS011;51062;45.120;37.660;2022-08-16T02:17:09;11.52;;;6.65;;
64651;SDS011;51062;45.120;37.660;2022-08-16T02:19:37;12.35;;;7.30;;
64651;SDS011;51062;45.120;37.660;2022-08-16T02:22:06;19.33;;;7.60;;
64651;SDS011;51062;45.120;37.660;2022-08-16T02:24:36;13.52;;;7.32;;
64651;SDS011;51062;45.120;37.660;2022-08-16T02:27:04;18.08;;;7.10;;
64651;SDS011;51062;45.120;37.660;2022-08-16T02:29:31;14.40;;;7.07;;
64651;SDS011;51062;45.120;37.660;2022-08-16T02:31:57;23.35;;;7.45;;
64651;SDS011;51062;45.120;37.660;2022-08-16T02:34:23;14.18;;;6.90;;
64651;SDS011;51062;45.120;37.660;2022-08-16T02:36:50;18.73;;;7.38;;
64651;SDS011;51062;45.120;37.660;2022-08-16T02:39:19;15.15;;;6.28;;
64651;SDS011;51062;45.120;37.660;2022-08-16T02:41:49;14.43;;;6.90;;
64651;SDS011;51062;45.120;37.660;2022-08-16T02:44:18;22.38;;;6.38;;
64651;SDS011;51062;45.120;37.660;2022-08-16T02:46:47;16.88;;;6.07;;
64651;SDS011;51062;45.120;37.660;2022-08-16T02:49:14;17.17;;;6.53;;
64651;SDS011;51062;45.120;37.660;2022-08-16T02:51:41;16.27;;;6.60;;
64651;SDS011;51062;45.120;37.660;2022-08-16T02:54:08;12.77;;;5.75;;
64651;SDS011;51062;45.120;37.660;2022-08-16T02:56:38;11.52;;;5.72;;
64651;SDS011;51062;45.120;37.660;2022-08-16T02:59:05;10.90;;;6.38;;
64651;SDS011;51062;45.120;37.660;2022-08-16T03:01:32;18.10;;;6.97;;
64651;SDS011;51062;45.120;37.660;2022-08-16T03:04:02;13.45;;;6.55;;
64651;SDS011;51062;45.120;37.660;2022-08-16T03:06:30;14.38;;;6.70;;
64651;SDS011;51062;45.120;37.660;2022-08-16T03:09:03;15.15;;;6.57;;
64651;SDS011;51062;45.120;37.660;2022-08-16T03:11:33;13.52;;;6.32;;
64651;SDS011;51062;45.120;37.660;2022-08-16T03:14:00;13.30;;;6.35;;
64651;SDS011;51062;45.120;37.660;2022-08-16T03:16:28;19.13;;;6.57;;
64651;SDS011;51062;45.120;37.660;2022-08-16T03:18:55;16.13;;;6.93;;
64651;SDS011;51062;45.120;37.660;2022-08-16T03:21:21;18.00;;;5.97;;
64651;SDS011;51062;45.120;37.660;2022-08-16T03:23:47;14.50;;;6.28;;
64651;SDS011;51062;45.120;37.660;2022-08-16T03:26:14;20.50;;;6.97;;
64651;SDS011;51062;45.120;37.660;2022-08-16T03:28:40;18.95;;;6.25;;
64651;SDS011;51062;45.120;37.660;2022-08-16T03:31:07;13.13;;;5.80;;
64651;SDS011;51062;45.120;37.660;2022-08-16T03:33:34;11.82;;;7.07;;
64651;SDS011;51062;45.120;37.660;2022-08-16T03:36:01;12.18;;;6.25;;
64651;SDS011;51062;45.120;37.660;2022-08-16T03:38:33;11.80;;;6.63;;
64651;SDS011;51062;45.120;37.660;2022-08-16T03:41:03;10.90;;;6.03;;
64651;SDS011;51062;45.120;37.660;2022-08-16T03:43:30;12.85;;;6.30;;
64651;SDS011;51062;45.120;37.660;2022-08-16T03:45:57;15.85;;;6.80;;
64651;SDS011;51062;45.120;37.660;2022-08-16T03:48:29;15.63;;;6.60;;
64651;SDS011;51062;45.120;37.660;2022-08-16T03:51:03;16.17;;;7.75;;
64651;SDS011;51062;45.120;37.660;2022-08-16T03:53:36;24.70;;;7.93;;
64651;SDS011;51062;45.120;37.660;2022-08-16T03:56:05;18.58;;;6.85;;
64651;SDS011;51062;45.120;37.660;2022-08-16T03:58:32;21.67;;;8.05;;
64651;SDS011;51062;45.120;37.660;2022-08-16T04:01:00;22.15;;;7.43;;
64651;SDS011;51062;45.120;37.660;2022-08-16T04:03:26;21.40;;;7.18;;
64651;SDS011;51062;45.120;37.660;2022-08-16T04:05:53;13.07;;;6.75;;
64651;SDS011;51062;45.120;37.660;2022-08-16T04:08:19;17.73;;;6.65;;
64651;SDS011;51062;45.120;37.660;2022-08-16T04:10:49;15.23;;;6.72;;
64651;SDS011;51062;45.120;37.660;2022-08-16T04:13:17;12.20;;;6.45;;
64651;SDS011;51062;45.120;37.660;2022-08-16T04:15:43;11.02;;;6.45;;
64651;SDS011;51062;45.120;37.660;2022-08-16T04:18:19;18.63;;;6.70;;
64651;SDS011;51062;45.120;37.660;2022-08-16T04:20:45;23.13;;;7.88;;
64651;SDS011;51062;45.120;37.660;2022-08-16T04:23:12;20.92;;;7.68;;
64651;SDS011;51062;45.120;37.660;2022-08-16T04:25:41;20.90;;;6.50;;
64651;SDS011;51062;45.120;37.660;2022-08-16T04:28:09;15.07;;;5.80;;
64651;SDS011;51062;45.120;37.660;2022-08-16T04:30:36;14.63;;;5.72;;
64651;SDS011;51062;45.120;37.660;2022-08-16T04:33:03;14.93;;;5.75;;
64651;SDS011;51062;45.120;37.660;2022-08-16T04:35:31;20.38;;;6.10;;
64651;SDS011;51062;45.120;37.660;2022-08-16T04:37:57;29.67;;;6.50;;
64651;SDS011;51062;45.120;37.660;2022-08-16T04:40:28;13.48;;;5.40;;
64651;SDS011;51062;45.120;37.660;2022-08-16T04:42:56;11.55;;;5.78;;
64651;SDS011;51062;45.120;37.660;2022-08-16T04:45:27;21.65;;;5.60;;
64651;SDS011;51062;45.120;37.660;2022-08-16T04:47:55;18.13;;;5.65;;
64651;SDS011;51062;45.120;37.660;2022-08-16T04:50:23;16.45;;;5.68;;
64651;SDS011;51062;45.120;37.660;2022-08-16T04:53:26;14.35;;;6.13;;
64651;SDS011;51062;45.120;37.660;2022-08-16T04:55:54;13.57;;;5.60;;
64651;SDS011;51062;45.120;37.660;2022-08-16T04:58:23;18.60;;;5.80;;
64651;SDS011;51062;45.120;37.660;2022-08-16T05:00:49;12.00;;;5.38;;
64651;SDS011;51062;45.120;37.660;2022-08-16T05:03:19;33.45;;;7.45;;
64651;SDS011;51062;45.120;37.660;2022-08-16T05:05:47;21.65;;;5.68;;
64651;SDS011;51062;45.120;37.660;2022-08-16T05:08:19;12.55;;;5.70;;
64651;SDS011;51062;45.120;37.660;2022-08-16T05:10:53;15.10;;;5.28;;
64651;SDS011;51062;45.120;37.660;2022-08-16T05:13:20;19.50;;;5.72;;
64651;SDS011;51062;45.120;37.660;2022-08-16T05:15:46;19.85;;;4.70;;
64651;SDS011;51062;45.120;37.660;2022-08-16T05:18:13;24.70;;;5.18;;
64651;SDS011;51062;45.120;37.660;2022-08-16T05:20:47;18.40;;;5.35;;
64651;SDS011;51062;45.120;37.660;2022-08-16T05:23:15;232.75;;;16.23;;
64651;SDS011;51062;45.120;37.660;2022-08-16T05:25:45;181.80;;;11.45;;
64651;SDS011;51062;45.120;37.660;2022-08-16T05:28:11;12.68;;;4.68;;
64651;SDS011;51062;45.120;37.660;2022-08-16T05:30:43;10.68;;;4.43;;
64651;SDS011;51062;45.120;37.660;2022-08-16T05:33:17;34.90;;;5.18;;
64651;SDS011;51062;45.120;37.660;2022-08-16T05:35:47;17.92;;;5.00;;
64651;SDS011;51062;45.120;37.660;2022-08-16T05:38:18;18.75;;;4.03;;
64651;SDS011;51062;45.120;37.660;2022-08-16T05:40:53;30.48;;;5.68;;
64651;SDS011;51062;45.120;37.660;2022-08-16T05:43:20;9.00;;;4.47;;
64651;SDS011;51062;45.120;37.660;2022-08-16T05:45:47;13.93;;;4.78;;
64651;SDS011;51062;45.120;37.660;2022-08-16T05:48:14;13.55;;;4.95;;
64651;SDS011;51062;45.120;37.660;2022-08-16T05:50:54;15.82;;;4.97;;
64651;SDS011;51062;45.120;37.660;2022-08-16T05:53:20;98.18;;;8.05;;
64651;SDS011;51062;45.120;37.660;2022-08-16T05:56:02;21.85;;;5.90;;
64651;SDS011;51062;45.120;37.660;2022-08-16T05:58:29;14.98;;;5.43;;
64651;SDS011;51062;45.120;37.660;2022-08-16T06:00:55;13.75;;;4.90;;
64651;SDS011;51062;45.120;37.660;2022-08-16T06:03:21;20.48;;;4.63;;
64651;SDS011;51062;45.120;37.660;2022-08-16T06:05:58;13.13;;;5.30;;
64651;SDS011;51062;45.120;37.660;2022-08-16T06:08:25;16.40;;;6.25;;
64651;SDS011;51062;45.120;37.660;2022-08-16T06:10:51;20.08;;;6.10;;
64651;SDS011;51062;45.120;37.660;2022-08-16T06:13:20;16.92;;;5.93;;
64651;SDS011;51062;45.120;37.660;2022-08-16T06:15:46;17.58;;;6.55;;
64651;SDS011;51062;45.120;37.660;2022-08-16T06:18:17;17.15;;;5.43;;
64651;SDS011;51062;45.120;37.660;2022-08-16T06:20:45;32.00;;;6.30;;
64651;SDS011;51062;45.120;37.660;2022-08-16T06:23:18;19.02;;;6.45;;
64651;SDS011;51062;45.120;37.660;2022-08-16T06:25:56;21.52;;;5.25;;
64651;SDS011;51062;45.120;37.660;2022-08-16T06:28:24;22.58;;;5.55;;
64651;SDS011;51062;45.120;37.660;2022-08-16T06:30:52;23.23;;;5.68;;
64651;SDS011;51062;45.120;37.660;2022-08-16T06:33:18;14.57;;;4.60;;
64651;SDS011;51062;45.120;37.660;2022-08-16T06:35:45;20.88;;;5.13;;
64651;SDS011;51062;45.120;37.660;2022-08-16T06:38:12;17.83;;;5.53;;
64651;SDS011;51062;45.120;37.660;2022-08-16T06:40:38;21.77;;;4.38;;
64651;SDS011;51062;45.120;37.660;2022-08-16T06:43:05;18.77;;;5.05;;
64651;SDS011;51062;45.120;37.660;2022-08-16T06:45:38;22.55;;;5.35;;
64651;SDS011;51062;45.120;37.660;2022-08-16T06:48:18;20.10;;;4.95;;
64651;SDS011;51062;45.120;37.660;2022-08-16T06:50:45;16.02;;;4.22;;
64651;SDS011;51062;45.120;37.660;2022-08-16T06:53:17;18.00;;;4.80;;
64651;SDS011;51062;45.120;37.660;2022-08-16T06:55:59;23.63;;;4.57;;
64651;SDS011;51062;45.120;37.660;2022-08-16T06:58:57;21.33;;;5.50;;
64651;SDS011;51062;45.120;37.660;2022-08-16T07:01:28;18.20;;;6.05;;
64651;SDS011;51062;45.120;37.660;2022-08-16T07:03:55;25.02;;;5.60;;
64651;SDS011;51062;45.120;37.660;2022-08-16T07:06:21;22.90;;;5.30;;
64651;SDS011;51062;45.120;37.660;2022-08-16T07:08:48;21.35;;;4.65;;
64651;SDS011;51062;45.120;37.660;2022-08-16T07:11:15;16.50;;;5.15;;
64651;SDS011;51062;45.120;37.660;2022-08-16T07:13:42;24.70;;;5.15;;
64651;SDS011;51062;45.120;37.660;2022-08-16T07:16:10;16.00;;;5.30;;
64651;SDS011;51062;45.120;37.660;2022-08-16T07:18:40;22.88;;;4.75;;
64651;SDS011;51062;45.120;37.660;2022-08-16T07:21:09;15.85;;;4.93;;
64651;SDS011;51062;45.120;37.660;2022-08-16T07:23:38;14.90;;;5.78;;
64651;SDS011;51062;45.120;37.660;2022-08-16T07:26:09;19.42;;;3.97;;
64651;SDS011;51062;45.120;37.660;2022-08-16T07:28:39;11.63;;;3.88;;
64651;SDS011;51062;45.120;37.660;2022-08-16T07:31:05;17.80;;;5.93;;
64651;SDS011;51062;45.120;37.660;2022-08-16T07:33:35;12.27;;;3.72;;
64651;SDS011;51062;45.120;37.660;2022-08-16T07:36:04;17.70;;;4.72;;
64651;SDS011;51062;45.120;37.660;2022-08-16T07:38:33;16.85;;;4.70;;
64651;SDS011;51062;45.120;37.660;2022-08-16T07:41:02;14.38;;;3.97;;
64651;SDS011;51062;45.120;37.660;2022-08-16T07:43:31;17.08;;;3.88;;
64651;SDS011;51062;45.120;37.660;2022-08-16T07:46:01;19.85;;;5.40;;
64651;SDS011;51062;45.120;37.660;2022-08-16T08:18:24;15.70;;;4.93;;
64651;SDS011;51062;45.120;37.660;2022-08-16T08:20:51;14.50;;;4.13;;
64651;SDS011;51062;45.120;37.660;2022-08-16T08:23:17;11.60;;;3.53;;
64651;SDS011;51062;45.120;37.660;2022-08-16T08:25:47;9.88;;;3.53;;
64651;SDS011;51062;45.120;37.660;2022-08-16T08:28:14;13.93;;;3.95;;
64651;SDS011;51062;45.120;37.660;2022-08-16T08:30:42;14.40;;;4.00;;
64651;SDS011;51062;45.120;37.660;2022-08-16T08:33:09;11.05;;;4.20;;
64651;SDS011;51062;45.120;37.660;2022-08-16T08:35:40;9.57;;;3.58;;
64651;SDS011;51062;45.120;37.660;2022-08-16T08:38:08;10.15;;;3.63;;
64651;SDS011;51062;45.120;37.660;2022-08-16T08:40:40;9.38;;;3.42;;
64651;SDS011;51062;45.120;37.660;2022-08-16T08:43:06;11.65;;;4.07;;
64651;SDS011;51062;45.120;37.660;2022-08-16T08:45:36;15.23;;;3.50;;
64651;SDS011;51062;45.120;37.660;2022-08-16T08:48:02;15.50;;;3.72;;
64651;SDS011;51062;45.120;37.660;2022-08-16T08:50:31;15.38;;;4.05;;
64651;SDS011;51062;45.120;37.660;2022-08-16T08:53:01;12.45;;;4.32;;
64651;SDS011;51062;45.120;37.660;2022-08-16T08:55:28;18.50;;;4.45;;
64651;SDS011;51062;45.120;37.660;2022-08-16T08:57:56;13.05;;;4.07;;
64651;SDS011;51062;45.120;37.660;2022-08-16T09:00:39;12.88;;;5.03;;
64651;SDS011;51062;45.120;37.660;2022-08-16T09:03:05;11.45;;;4.15;;
64651;SDS011;51062;45.120;37.660;2022-08-16T09:05:34;14.32;;;3.63;;
64651;SDS011;51062;45.120;37.660;2022-08-16T09:08:01;13.68;;;4.22;;
64651;SDS011;51062;45.120;37.660;2022-08-16T09:10:41;14.07;;;3.28;;
64651;SDS011;51062;45.120;37.660;2022-08-16T09:13:08;15.43;;;4.45;;
64651;SDS011;51062;45.120;37.660;2022-08-16T09:15:42;13.82;;;3.97;;
64651;SDS011;51062;45.120;37.660;2022-08-16T09:18:09;11.35;;;4.20;;
64651;SDS011;51062;45.120;37.660;2022-08-16T09:20:35;15.07;;;4.95;;
64651;SDS011;51062;45.120;37.660;2022-08-16T09:23:01;13.95;;;4.45;;
64651;SDS011;51062;45.120;37.660;2022-08-16T09:25:32;14.57;;;4.35;;
64651;SDS011;51062;45.120;37.660;2022-08-16T09:28:00;20.70;;;4.40;;
64651;SDS011;51062;45.120;37.660;2022-08-16T09:30:29;16.83;;;4.20;;
64651;SDS011;51062;45.120;37.660;2022-08-16T09:32:59;14.20;;;4.20;;
64651;SDS011;51062;45.120;37.660;2022-08-16T09:35:26;12.20;;;4.18;;
64651;SDS011;51062;45.120;37.660;2022-08-16T09:37:53;17.33;;;4.07;;
64651;SDS011;51062;45.120;37.660;2022-08-16T09:40:21;14.00;;;3.55;;
64651;SDS011;51062;45.120;37.660;2022-08-16T09:42:48;18.80;;;5.63;;
64651;SDS011;51062;45.120;37.660;2022-08-16T09:45:14;13.25;;;3.72;;
64651;SDS011;51062;45.120;37.660;2022-08-16T09:47:40;16.77;;;3.80;;
64651;SDS011;51062;45.120;37.660;2022-08-16T09:50:08;15.20;;;4.13;;
64651;SDS011;51062;45.120;37.660;2022-08-16T09:52:36;14.10;;;4.63;;
64651;SDS011;51062;45.120;37.660;2022-08-16T09:55:07;7.90;;;3.85;;
64651;SDS011;51062;45.120;37.660;2022-08-16T09:57:36;14.93;;;3.92;;
64651;SDS011;51062;45.120;37.660;2022-08-16T10:00:03;17.10;;;4.22;;
64651;SDS011;51062;45.120;37.660;2022-08-16T10:02:37;11.13;;;3.83;;
64651;SDS011;51062;45.120;37.660;2022-08-16T10:05:06;14.93;;;3.80;;
64651;SDS011;51062;45.120;37.660;2022-08-16T10:07:32;15.48;;;4.00;;
64651;SDS011;51062;45.120;37.660;2022-08-16T10:09:58;12.48;;;3.72;;
64651;SDS011;51062;45.120;37.660;2022-08-16T10:12:25;15.75;;;3.92;;
64651;SDS011;51062;45.120;37.660;2022-08-16T10:15:15;13.60;;;3.78;;
64651;SDS011;51062;45.120;37.660;2022-08-16T10:17:45;13.07;;;3.63;;
64651;SDS011;51062;45.120;37.660;2022-08-16T10:20:15;8.32;;;3.45;;
64651;SDS011;51062;45.120;37.660;2022-08-16T10:22:41;10.45;;;3.60;;
64651;SDS011;51062;45.120;37.660;2022-08-16T10:25:07;13.60;;;3.65;;
64651;SDS011;51062;45.120;37.660;2022-08-16T10:27:34;9.93;;;3.42;;
64651;SDS011;51062;45.120;37.660;2022-08-16T10:30:02;11.15;;;3.80;;
64651;SDS011;51062;45.120;37.660;2022-08-16T10:32:30;14.43;;;3.30;;
64651;SDS011;51062;45.120;37.660;2022-08-16T10:34:56;9.63;;;3.97;;
64651;SDS011;51062;45.120;37.660;2022-08-16T10:37:22;7.30;;;3.53;;
64651;SDS011;51062;45.120;37.660;2022-08-16T10:39:49;12.68;;;4.07;;
64651;SDS011;51062;45.120;37.660;2022-08-16T10:42:15;6.20;;;3.42;;
64651;SDS011;51062;45.120;37.660;2022-08-16T10:44:42;10.32;;;3.42;;
64651;SDS011;51062;45.120;37.660;2022-08-16T10:47:09;14.30;;;4.18;;
64651;SDS011;51062;45.120;37.660;2022-08-16T10:49:36;8.82;;;3.30;;
64651;SDS011;51062;45.120;37.660;2022-08-16T10:52:03;10.95;;;3.72;;
64651;SDS011;51062;45.120;37.660;2022-08-16T10:54:30;11.32;;;3.00;;
64651;SDS011;51062;45.120;37.660;2022-08-16T10:56:57;40.75;;;4.72;;
64651;SDS011;51062;45.120;37.660;2022-08-16T10:59:25;8.45;;;3.90;;
64651;SDS011;51062;45.120;37.660;2022-08-16T11:01:51;15.27;;;4.45;;
64651;SDS011;51062;45.120;37.660;2022-08-16T11:04:18;15.73;;;3.45;;
64651;SDS011;51062;45.120;37.660;2022-08-16T11:06:45;19.10;;;4.00;;
64651;SDS011;51062;45.120;37.660;2022-08-16T11:09:12;16.63;;;3.80;;
64651;SDS011;51062;45.120;37.660;2022-08-16T11:11:38;10.35;;;3.92;;
64651;SDS011;51062;45.120;37.660;2022-08-16T11:14:04;11.00;;;4.55;;
64651;SDS011;51062;45.120;37.660;2022-08-16T11:16:32;8.80;;;3.70;;
64651;SDS011;51062;45.120;37.660;2022-08-16T11:18:58;10.63;;;3.40;;
64651;SDS011;51062;45.120;37.660;2022-08-16T11:21:25;6.22;;;3.03;;
64651;SDS011;51062;45.120;37.660;2022-08-16T11:23:51;7.38;;;3.67;;
64651;SDS011;51062;45.120;37.660;2022-08-16T11:26:18;9.70;;;3.72;;
64651;SDS011;51062;45.120;37.660;2022-08-16T11:28:46;8.75;;;3.50;;
64651;SDS011;51062;45.120;37.660;2022-08-16T11:31:17;13.70;;;3.30;;
64651;SDS011;51062;45.120;37.660;2022-08-16T11:33:44;8.25;;;3.88;;
64651;SDS011;51062;45.120;37.660;2022-08-16T11:36:10;6.10;;;3.30;;
64651;SDS011;51062;45.120;37.660;2022-08-16T11:38:37;6.13;;;3.38;;
64651;SDS011;51062;45.120;37.660;2022-08-16T11:41:03;8.55;;;3.25;;
64651;SDS011;51062;45.120;37.660;2022-08-16T11:43:32;7.28;;;3.20;;
64651;SDS011;51062;45.120;37.660;2022-08-16T11:46:03;13.38;;;3.58;;
64651;SDS011;51062;45.120;37.660;2022-08-16T11:48:33;11.82;;;4.18;;
64651;SDS011;51062;45.120;37.660;2022-08-16T11:50:59;6.75;;;3.45;;
64651;SDS011;51062;45.120;37.660;2022-08-16T11:53:27;17.23;;;3.70;;
64651;SDS011;51062;45.120;37.660;2022-08-16T11:55:54;16.67;;;3.05;;
64651;SDS011;51062;45.120;37.660;2022-08-16T11:58:22;10.32;;;3.83;;
64651;SDS011;51062;45.120;37.660;2022-08-16T12:00:49;10.38;;;3.40;;
64651;SDS011;51062;45.120;37.660;2022-08-16T12:03:16;6.57;;;3.67;;
64651;SDS011;51062;45.120;37.660;2022-08-16T12:05:43;6.60;;;3.67;;
64651;SDS011;51062;45.120;37.660;2022-08-16T12:08:11;9.82;;;3.60;;
64651;SDS011;51062;45.120;37.660;2022-08-16T12:10:39;9.27;;;3.63;;
64651;SDS011;51062;45.120;37.660;2022-08-16T12:13:06;9.52;;;3.53;;
64651;SDS011;51062;45.120;37.660;2022-08-16T12:15:33;8.55;;;3.47;;
64651;SDS011;51062;45.120;37.660;2022-08-16T12:18:00;10.27;;;4.10;;
64651;SDS011;51062;45.120;37.660;2022-08-16T12:20:29;10.23;;;3.90;;
64651;SDS011;51062;45.120;37.660;2022-08-16T12:22:57;11.77;;;3.35;;
64651;SDS011;51062;45.120;37.660;2022-08-16T12:25:26;19.58;;;4.32;;
64651;SDS011;51062;45.120;37.660;2022-08-16T12:27:54;10.25;;;3.40;;
64651;SDS011;51062;45.120;37.660;2022-08-16T12:30:22;9.68;;;4.20;;
64651;SDS011;51062;45.120;37.660;2022-08-16T12:32:53;15.70;;;3.70;;
64651;SDS011;51062;45.120;37.660;2022-08-16T12:35:21;9.65;;;3.58;;
64651;SDS011;51062;45.120;37.660;2022-08-16T12:37:48;10.00;;;3.35;;
64651;SDS011;51062;45.120;37.660;2022-08-16T12:40:16;7.63;;;3.20;;
64651;SDS011;51062;45.120;37.660;2022-08-16T12:42:44;8.98;;;3.55;;
64651;SDS011;51062;45.120;37.660;2022-08-16T12:45:12;11.50;;;3.50;;
64651;SDS011;51062;45.120;37.660;2022-08-16T12:47:39;19.38;;;3.70;;
64651;SDS011;51062;45.120;37.660;2022-08-16T12:50:23;11.20;;;3.60;;
64651;SDS011;51062;45.120;37.660;2022-08-16T12:52:50;11.27;;;3.38;;
64651;SDS011;51062;45.120;37.660;2022-08-16T12:55:16;11.27;;;3.72;;
64651;SDS011;51062;45.120;37.660;2022-08-16T12:57:43;11.27;;;3.80;;
64651;SDS011;51062;45.120;37.660;2022-08-16T13:00:13;8.30;;;3.63;;
64651;SDS011;51062;45.120;37.660;2022-08-16T13:02:44;9.55;;;3.83;;
64651;SDS011;51062;45.120;37.660;2022-08-16T13:05:12;7.03;;;3.60;;
64651;SDS011;51062;45.120;37.660;2022-08-16T13:07:39;29.08;;;4.60;;
64651;SDS011;51062;45.120;37.660;2022-08-16T13:10:07;14.15;;;4.40;;
64651;SDS011;51062;45.120;37.660;2022-08-16T13:12:40;8.50;;;4.00;;
64651;SDS011;51062;45.120;37.660;2022-08-16T13:15:09;9.55;;;4.20;;
64651;SDS011;51062;45.120;37.660;2022-08-16T13:17:38;11.50;;;4.22;;
64651;SDS011;51062;45.120;37.660;2022-08-16T13:20:06;11.93;;;4.63;;
64651;SDS011;51062;45.120;37.660;2022-08-16T13:22:36;18.25;;;4.15;;
64651;SDS011;51062;45.120;37.660;2022-08-16T13:25:05;11.07;;;4.65;;
64651;SDS011;51062;45.120;37.660;2022-08-16T13:27:32;10.13;;;4.22;;
64651;SDS011;51062;45.120;37.660;2022-08-16T13:29:59;18.23;;;5.80;;
64651;SDS011;51062;45.120;37.660;2022-08-16T13:32:25;15.48;;;4.93;;
64651;SDS011;51062;45.120;37.660;2022-08-16T13:34:51;16.95;;;5.68;;
64651;SDS011;51062;45.120;37.660;2022-08-16T13:37:17;20.02;;;5.57;;
64651;SDS011;51062;45.120;37.660;2022-08-16T13:39:45;19.80;;;5.05;;
64651;SDS011;51062;45.120;37.660;2022-08-16T13:42:12;13.10;;;5.20;;
64651;SDS011;51062;45.120;37.660;2022-08-16T13:44:38;18.40;;;4.63;;
64651;SDS011;51062;45.120;37.660;2022-08-16T13:47:05;74.95;;;8.35;;
64651;SDS011;51062;45.120;37.660;2022-08-16T13:49:32;21.20;;;6.10;;
64651;SDS011;51062;45.120;37.660;2022-08-16T13:51:59;11.32;;;4.60;;
64651;SDS011;51062;45.120;37.660;2022-08-16T13:54:26;28.92;;;5.28;;
64651;SDS011;51062;45.120;37.660;2022-08-16T13:56:52;19.73;;;5.18;;
64651;SDS011;51062;45.120;37.660;2022-08-16T13:59:18;40.35;;;5.93;;
64651;SDS011;51062;45.120;37.660;2022-08-16T14:01:46;29.63;;;5.85;;
64651;SDS011;51062;45.120;37.660;2022-08-16T14:04:14;17.60;;;5.63;;
64651;SDS011;51062;45.120;37.660;2022-08-16T14:06:41;16.02;;;5.15;;
64651;SDS011;51062;45.120;37.660;2022-08-16T14:09:07;15.07;;;5.50;;
64651;SDS011;51062;45.120;37.660;2022-08-16T14:11:33;30.42;;;5.32;;
64651;SDS011;51062;45.120;37.660;2022-08-16T14:14:00;19.50;;;4.47;;
64651;SDS011;51062;45.120;37.660;2022-08-16T14:16:26;38.80;;;5.85;;
64651;SDS011;51062;45.120;37.660;2022-08-16T14:18:52;13.50;;;5.10;;
64651;SDS011;51062;45.120;37.660;2022-08-16T14:21:19;22.40;;;5.03;;
64651;SDS011;51062;45.120;37.660;2022-08-16T14:23:47;26.50;;;5.13;;
64651;SDS011;51062;45.120;37.660;2022-08-16T14:26:14;9.02;;;4.65;;
64651;SDS011;51062;45.120;37.660;2022-08-16T14:28:40;23.70;;;7.13;;
64651;SDS011;51062;45.120;37.660;2022-08-16T14:31:07;11.73;;;4.93;;
64651;SDS011;51062;45.120;37.660;2022-08-16T14:33:33;10.77;;;4.47;;
64651;SDS011;51062;45.120;37.660;2022-08-16T14:36:00;9.32;;;4.38;;
64651;SDS011;51062;45.120;37.660;2022-08-16T14:38:26;18.13;;;5.20;;
64651;SDS011;51062;45.120;37.660;2022-08-16T14:40:52;15.45;;;4.55;;
64651;SDS011;51062;45.120;37.660;2022-08-16T14:43:18;23.52;;;4.57;;
64651;SDS011;51062;45.120;37.660;2022-08-16T14:45:45;21.08;;;4.82;;
64651;SDS011;51062;45.120;37.660;2022-08-16T14:48:12;8.93;;;4.35;;
64651;SDS011;51062;45.120;37.660;2022-08-16T14:50:38;14.23;;;4.70;;
64651;SDS011;51062;45.120;37.660;2022-08-16T14:53:05;14.00;;;5.28;;
64651;SDS011;51062;45.120;37.660;2022-08-16T14:55:34;12.27;;;4.78;;
64651;SDS011;51062;45.120;37.660;2022-08-16T14:58:01;11.02;;;4.43;;
64651;SDS011;51062;45.120;37.660;2022-08-16T15:00:29;21.48;;;4.95;;
64651;SDS011;51062;45.120;37.660;2022-08-16T15:02:56;21.55;;;5.25;;